sensor_id;sensor_type;location;lat;lon;timestamp;P1;durP1;ratioP1;P2;durP2;ratioP2
36963;SDS011;22878;48.616;35.326;2022-08-21T00:01:56;44.10;;;6.03;;
36963;SDS011;22878;48.616;35.326;2022-08-21T00:04:22;45.60;;;6.17;;
36963;SDS011;22878;48.616;35.326;2022-08-21T00:06:49;44.45;;;5.55;;
36963;SDS011;22878;48.616;35.326;2022-08-21T00:09:15;42.30;;;5.05;;
36963;SDS011;22878;48.616;35.326;2022-08-21T00:11:42;35.43;;;6.05;;
36963;SDS011;22878;48.616;35.326;2022-08-21T00:14:09;44.58;;;5.17;;
36963;SDS011;22878;48.616;35.326;2022-08-21T00:16:35;42.73;;;5.33;;
36963;SDS011;22878;48.616;35.326;2022-08-21T00:19:01;42.93;;;5.55;;
36963;SDS011;22878;48.616;35.326;2022-08-21T00:21:27;35.98;;;5.42;;
36963;SDS011;22878;48.616;35.326;2022-08-21T00:23:53;30.90;;;5.15;;
36963;SDS011;22878;48.616;35.326;2022-08-21T00:26:19;40.85;;;5.83;;
36963;SDS011;22878;48.616;35.326;2022-08-21T00:28:45;41.73;;;4.92;;
36963;SDS011;22878;48.616;35.326;2022-08-21T00:31:11;48.73;;;5.03;;
36963;SDS011;22878;48.616;35.326;2022-08-21T00:33:37;38.25;;;5.35;;
36963;SDS011;22878;48.616;35.326;2022-08-21T00:36:03;34.58;;;5.12;;
36963;SDS011;22878;48.616;35.326;2022-08-21T00:38:29;43.15;;;5.62;;
36963;SDS011;22878;48.616;35.326;2022-08-21T00:40:57;40.38;;;5.25;;
36963;SDS011;22878;48.616;35.326;2022-08-21T00:43:26;30.25;;;5.25;;
36963;SDS011;22878;48.616;35.326;2022-08-21T00:45:53;39.38;;;5.40;;
36963;SDS011;22878;48.616;35.326;2022-08-21T00:48:19;27.22;;;4.42;;
36963;SDS011;22878;48.616;35.326;2022-08-21T00:50:46;39.90;;;5.47;;
36963;SDS011;22878;48.616;35.326;2022-08-21T00:53:18;39.47;;;5.03;;
36963;SDS011;22878;48.616;35.326;2022-08-21T00:55:44;32.98;;;5.05;;
36963;SDS011;22878;48.616;35.326;2022-08-21T00:58:11;32.78;;;4.83;;
36963;SDS011;22878;48.616;35.326;2022-08-21T01:00:40;51.88;;;6.70;;
36963;SDS011;22878;48.616;35.326;2022-08-21T01:05:36;35.52;;;4.95;;
36963;SDS011;22878;48.616;35.326;2022-08-21T01:08:02;52.48;;;5.45;;
36963;SDS011;22878;48.616;35.326;2022-08-21T01:10:29;39.13;;;5.05;;
36963;SDS011;22878;48.616;35.326;2022-08-21T01:12:55;34.13;;;5.55;;
36963;SDS011;22878;48.616;35.326;2022-08-21T01:17:51;28.85;;;4.53;;
36963;SDS011;22878;48.616;35.326;2022-08-21T01:20:18;38.08;;;5.00;;
36963;SDS011;22878;48.616;35.326;2022-08-21T01:22:44;43.95;;;5.08;;
36963;SDS011;22878;48.616;35.326;2022-08-21T01:25:11;31.68;;;4.95;;
36963;SDS011;22878;48.616;35.326;2022-08-21T01:27:38;39.38;;;5.20;;
36963;SDS011;22878;48.616;35.326;2022-08-21T01:30:14;41.63;;;4.95;;
36963;SDS011;22878;48.616;35.326;2022-08-21T01:32:45;47.88;;;5.85;;
36963;SDS011;22878;48.616;35.326;2022-08-21T01:35:13;39.88;;;5.17;;
36963;SDS011;22878;48.616;35.326;2022-08-21T01:37:40;54.70;;;5.15;;
36963;SDS011;22878;48.616;35.326;2022-08-21T01:40:07;41.60;;;5.30;;
36963;SDS011;22878;48.616;35.326;2022-08-21T01:42:33;39.70;;;6.08;;
36963;SDS011;22878;48.616;35.326;2022-08-21T01:44:59;32.90;;;5.37;;
36963;SDS011;22878;48.616;35.326;2022-08-21T01:47:25;37.17;;;5.47;;
36963;SDS011;22878;48.616;35.326;2022-08-21T01:49:52;44.42;;;5.17;;
36963;SDS011;22878;48.616;35.326;2022-08-21T01:52:18;31.75;;;4.97;;
36963;SDS011;22878;48.616;35.326;2022-08-21T01:54:45;34.70;;;5.42;;
36963;SDS011;22878;48.616;35.326;2022-08-21T01:57:11;36.93;;;5.60;;
36963;SDS011;22878;48.616;35.326;2022-08-21T01:59:38;32.98;;;5.53;;
36963;SDS011;22878;48.616;35.326;2022-08-21T02:02:05;41.02;;;5.08;;
36963;SDS011;22878;48.616;35.326;2022-08-21T02:04:31;38.50;;;4.83;;
36963;SDS011;22878;48.616;35.326;2022-08-21T02:06:57;35.28;;;4.92;;
36963;SDS011;22878;48.616;35.326;2022-08-21T02:09:24;36.83;;;5.20;;
36963;SDS011;22878;48.616;35.326;2022-08-21T02:11:50;38.90;;;5.75;;
36963;SDS011;22878;48.616;35.326;2022-08-21T02:14:16;37.55;;;5.03;;
36963;SDS011;22878;48.616;35.326;2022-08-21T02:16:43;34.30;;;4.78;;
36963;SDS011;22878;48.616;35.326;2022-08-21T02:19:11;37.98;;;5.95;;
36963;SDS011;22878;48.616;35.326;2022-08-21T02:21:37;41.98;;;4.60;;
36963;SDS011;22878;48.616;35.326;2022-08-21T02:24:03;33.65;;;5.60;;
36963;SDS011;22878;48.616;35.326;2022-08-21T02:26:30;38.20;;;5.80;;
36963;SDS011;22878;48.616;35.326;2022-08-21T02:28:56;48.30;;;4.90;;
36963;SDS011;22878;48.616;35.326;2022-08-21T02:31:21;34.00;;;4.20;;
36963;SDS011;22878;48.616;35.326;2022-08-21T02:33:47;41.10;;;5.33;;
36963;SDS011;22878;48.616;35.326;2022-08-21T02:36:13;29.32;;;4.97;;
36963;SDS011;22878;48.616;35.326;2022-08-21T02:38:40;32.60;;;4.65;;
36963;SDS011;22878;48.616;35.326;2022-08-21T02:41:07;43.87;;;5.80;;
36963;SDS011;22878;48.616;35.326;2022-08-21T02:43:35;34.90;;;4.95;;
36963;SDS011;22878;48.616;35.326;2022-08-21T02:46:02;32.93;;;4.60;;
36963;SDS011;22878;48.616;35.326;2022-08-21T02:48:34;27.90;;;5.22;;
36963;SDS011;22878;48.616;35.326;2022-08-21T02:51:02;35.73;;;5.42;;
36963;SDS011;22878;48.616;35.326;2022-08-21T02:53:32;40.52;;;5.20;;
36963;SDS011;22878;48.616;35.326;2022-08-21T02:56:00;35.58;;;4.25;;
36963;SDS011;22878;48.616;35.326;2022-08-21T02:58:30;39.45;;;5.22;;
36963;SDS011;22878;48.616;35.326;2022-08-21T03:00:57;43.42;;;4.92;;
36963;SDS011;22878;48.616;35.326;2022-08-21T03:03:24;33.92;;;5.58;;
36963;SDS011;22878;48.616;35.326;2022-08-21T03:05:50;30.23;;;4.42;;
36963;SDS011;22878;48.616;35.326;2022-08-21T03:08:16;29.55;;;4.12;;
36963;SDS011;22878;48.616;35.326;2022-08-21T03:10:45;31.68;;;4.47;;
36963;SDS011;22878;48.616;35.326;2022-08-21T03:13:12;43.55;;;4.78;;
36963;SDS011;22878;48.616;35.326;2022-08-21T03:15:38;29.27;;;3.60;;
36963;SDS011;22878;48.616;35.326;2022-08-21T03:18:05;34.27;;;4.67;;
36963;SDS011;22878;48.616;35.326;2022-08-21T03:20:32;31.87;;;4.28;;
36963;SDS011;22878;48.616;35.326;2022-08-21T03:22:59;42.73;;;5.40;;
36963;SDS011;22878;48.616;35.326;2022-08-21T03:25:25;39.98;;;5.72;;
36963;SDS011;22878;48.616;35.326;2022-08-21T03:27:52;49.77;;;5.92;;
36963;SDS011;22878;48.616;35.326;2022-08-21T03:30:19;31.97;;;4.47;;
36963;SDS011;22878;48.616;35.326;2022-08-21T03:32:46;50.75;;;4.42;;
36963;SDS011;22878;48.616;35.326;2022-08-21T03:35:12;34.98;;;4.03;;
36963;SDS011;22878;48.616;35.326;2022-08-21T03:37:38;40.15;;;5.17;;
36963;SDS011;22878;48.616;35.326;2022-08-21T03:40:05;40.73;;;4.95;;
36963;SDS011;22878;48.616;35.326;2022-08-21T03:42:32;35.85;;;4.37;;
36963;SDS011;22878;48.616;35.326;2022-08-21T03:44:58;39.63;;;5.50;;
36963;SDS011;22878;48.616;35.326;2022-08-21T03:47:23;36.75;;;4.90;;
36963;SDS011;22878;48.616;35.326;2022-08-21T03:49:49;34.80;;;4.20;;
36963;SDS011;22878;48.616;35.326;2022-08-21T03:52:15;40.05;;;3.98;;
36963;SDS011;22878;48.616;35.326;2022-08-21T03:54:42;51.13;;;5.05;;
36963;SDS011;22878;48.616;35.326;2022-08-21T03:57:08;37.40;;;4.85;;
36963;SDS011;22878;48.616;35.326;2022-08-21T03:59:35;29.87;;;3.80;;
36963;SDS011;22878;48.616;35.326;2022-08-21T04:02:01;39.23;;;4.65;;
36963;SDS011;22878;48.616;35.326;2022-08-21T04:04:29;44.20;;;5.75;;
36963;SDS011;22878;48.616;35.326;2022-08-21T04:06:55;37.05;;;5.28;;
36963;SDS011;22878;48.616;35.326;2022-08-21T04:09:22;33.15;;;5.92;;
36963;SDS011;22878;48.616;35.326;2022-08-21T04:11:48;36.77;;;5.00;;
36963;SDS011;22878;48.616;35.326;2022-08-21T04:14:14;30.17;;;4.12;;
36963;SDS011;22878;48.616;35.326;2022-08-21T04:16:41;40.80;;;4.80;;
36963;SDS011;22878;48.616;35.326;2022-08-21T04:19:07;40.45;;;6.20;;
36963;SDS011;22878;48.616;35.326;2022-08-21T04:21:33;40.67;;;5.17;;
36963;SDS011;22878;48.616;35.326;2022-08-21T04:24:01;43.45;;;4.85;;
36963;SDS011;22878;48.616;35.326;2022-08-21T04:26:27;38.95;;;4.20;;
36963;SDS011;22878;48.616;35.326;2022-08-21T04:28:53;38.98;;;4.95;;
36963;SDS011;22878;48.616;35.326;2022-08-21T04:31:21;46.08;;;5.28;;
36963;SDS011;22878;48.616;35.326;2022-08-21T04:33:49;48.23;;;4.85;;
36963;SDS011;22878;48.616;35.326;2022-08-21T04:36:16;48.02;;;5.00;;
36963;SDS011;22878;48.616;35.326;2022-08-21T04:38:42;46.90;;;5.60;;
36963;SDS011;22878;48.616;35.326;2022-08-21T04:41:09;37.88;;;5.15;;
36963;SDS011;22878;48.616;35.326;2022-08-21T04:43:35;50.75;;;6.05;;
36963;SDS011;22878;48.616;35.326;2022-08-21T04:46:01;34.05;;;5.00;;
36963;SDS011;22878;48.616;35.326;2022-08-21T04:48:27;52.35;;;5.40;;
36963;SDS011;22878;48.616;35.326;2022-08-21T04:50:57;53.00;;;6.70;;
36963;SDS011;22878;48.616;35.326;2022-08-21T04:56:06;44.35;;;6.00;;
36963;SDS011;22878;48.616;35.326;2022-08-21T04:58:33;43.65;;;5.47;;
36963;SDS011;22878;48.616;35.326;2022-08-21T05:01:00;40.48;;;5.90;;
36963;SDS011;22878;48.616;35.326;2022-08-21T05:03:26;47.93;;;5.83;;
36963;SDS011;22878;48.616;35.326;2022-08-21T05:05:52;51.90;;;5.55;;
36963;SDS011;22878;48.616;35.326;2022-08-21T05:08:19;48.00;;;5.40;;
36963;SDS011;22878;48.616;35.326;2022-08-21T05:10:48;42.93;;;7.25;;
36963;SDS011;22878;48.616;35.326;2022-08-21T05:13:14;52.15;;;6.58;;
36963;SDS011;22878;48.616;35.326;2022-08-21T05:15:40;58.85;;;7.15;;
36963;SDS011;22878;48.616;35.326;2022-08-21T05:18:07;45.12;;;6.17;;
36963;SDS011;22878;48.616;35.326;2022-08-21T05:20:33;46.50;;;6.50;;
36963;SDS011;22878;48.616;35.326;2022-08-21T05:23:00;52.23;;;6.97;;
36963;SDS011;22878;48.616;35.326;2022-08-21T05:25:26;57.70;;;9.23;;
36963;SDS011;22878;48.616;35.326;2022-08-21T05:27:52;77.53;;;9.00;;
36963;SDS011;22878;48.616;35.326;2022-08-21T05:30:19;50.70;;;6.80;;
36963;SDS011;22878;48.616;35.326;2022-08-21T05:32:45;69.00;;;8.40;;
36963;SDS011;22878;48.616;35.326;2022-08-21T05:35:12;79.10;;;8.18;;
36963;SDS011;22878;48.616;35.326;2022-08-21T05:37:39;67.82;;;8.15;;
36963;SDS011;22878;48.616;35.326;2022-08-21T05:40:05;78.80;;;9.15;;
36963;SDS011;22878;48.616;35.326;2022-08-21T05:42:33;71.42;;;9.88;;
36963;SDS011;22878;48.616;35.326;2022-08-21T05:44:59;58.45;;;9.53;;
36963;SDS011;22878;48.616;35.326;2022-08-21T05:47:25;64.77;;;9.05;;
36963;SDS011;22878;48.616;35.326;2022-08-21T05:49:51;67.65;;;10.30;;
36963;SDS011;22878;48.616;35.326;2022-08-21T05:52:20;68.80;;;9.13;;
36963;SDS011;22878;48.616;35.326;2022-08-21T05:54:46;70.85;;;9.88;;
36963;SDS011;22878;48.616;35.326;2022-08-21T05:57:12;69.07;;;8.95;;
36963;SDS011;22878;48.616;35.326;2022-08-21T05:59:38;59.70;;;9.78;;
36963;SDS011;22878;48.616;35.326;2022-08-21T06:02:04;81.78;;;9.23;;
36963;SDS011;22878;48.616;35.326;2022-08-21T06:04:29;81.63;;;10.25;;
36963;SDS011;22878;48.616;35.326;2022-08-21T06:06:55;78.17;;;10.80;;
36963;SDS011;22878;48.616;35.326;2022-08-21T06:09:21;78.30;;;9.28;;
36963;SDS011;22878;48.616;35.326;2022-08-21T06:11:47;78.97;;;9.65;;
36963;SDS011;22878;48.616;35.326;2022-08-21T06:14:14;68.75;;;8.48;;
36963;SDS011;22878;48.616;35.326;2022-08-21T06:16:40;81.92;;;9.25;;
36963;SDS011;22878;48.616;35.326;2022-08-21T06:19:05;78.85;;;8.98;;
36963;SDS011;22878;48.616;35.326;2022-08-21T06:21:32;74.22;;;9.03;;
36963;SDS011;22878;48.616;35.326;2022-08-21T06:23:57;64.00;;;9.38;;
36963;SDS011;22878;48.616;35.326;2022-08-21T06:26:23;57.48;;;9.00;;
36963;SDS011;22878;48.616;35.326;2022-08-21T06:28:50;65.28;;;9.35;;
36963;SDS011;22878;48.616;35.326;2022-08-21T06:31:17;52.25;;;8.45;;
36963;SDS011;22878;48.616;35.326;2022-08-21T06:33:45;69.58;;;9.73;;
36963;SDS011;22878;48.616;35.326;2022-08-21T06:36:12;72.60;;;10.00;;
36963;SDS011;22878;48.616;35.326;2022-08-21T06:38:38;88.50;;;9.40;;
36963;SDS011;22878;48.616;35.326;2022-08-21T06:41:04;66.22;;;8.65;;
36963;SDS011;22878;48.616;35.326;2022-08-21T06:43:30;74.97;;;9.08;;
36963;SDS011;22878;48.616;35.326;2022-08-21T06:45:56;55.30;;;8.05;;
36963;SDS011;22878;48.616;35.326;2022-08-21T06:48:22;61.37;;;9.30;;
36963;SDS011;22878;48.616;35.326;2022-08-21T06:50:48;66.67;;;8.73;;
36963;SDS011;22878;48.616;35.326;2022-08-21T06:53:15;64.47;;;8.85;;
36963;SDS011;22878;48.616;35.326;2022-08-21T06:55:43;58.98;;;8.45;;
36963;SDS011;22878;48.616;35.326;2022-08-21T06:58:09;66.42;;;9.15;;
36963;SDS011;22878;48.616;35.326;2022-08-21T07:00:38;63.60;;;10.32;;
36963;SDS011;22878;48.616;35.326;2022-08-21T07:03:04;68.57;;;9.68;;
36963;SDS011;22878;48.616;35.326;2022-08-21T07:05:29;64.47;;;8.13;;
36963;SDS011;22878;48.616;35.326;2022-08-21T07:07:55;64.85;;;10.53;;
36963;SDS011;22878;48.616;35.326;2022-08-21T07:10:22;61.37;;;9.05;;
36963;SDS011;22878;48.616;35.326;2022-08-21T07:12:50;79.27;;;8.95;;
36963;SDS011;22878;48.616;35.326;2022-08-21T07:15:17;70.10;;;9.00;;
36963;SDS011;22878;48.616;35.326;2022-08-21T07:17:43;80.70;;;9.58;;
36963;SDS011;22878;48.616;35.326;2022-08-21T07:20:09;86.05;;;9.65;;
36963;SDS011;22878;48.616;35.326;2022-08-21T07:22:35;70.83;;;8.18;;
36963;SDS011;22878;48.616;35.326;2022-08-21T07:25:01;66.65;;;8.38;;
36963;SDS011;22878;48.616;35.326;2022-08-21T07:27:28;82.82;;;9.58;;
36963;SDS011;22878;48.616;35.326;2022-08-21T07:29:54;85.12;;;9.48;;
36963;SDS011;22878;48.616;35.326;2022-08-21T07:32:20;90.60;;;8.68;;
36963;SDS011;22878;48.616;35.326;2022-08-21T07:34:45;69.75;;;8.50;;
36963;SDS011;22878;48.616;35.326;2022-08-21T07:37:11;62.38;;;7.92;;
36963;SDS011;22878;48.616;35.326;2022-08-21T07:39:37;75.72;;;8.65;;
36963;SDS011;22878;48.616;35.326;2022-08-21T07:42:03;76.77;;;9.15;;
36963;SDS011;22878;48.616;35.326;2022-08-21T07:44:29;76.55;;;8.40;;
36963;SDS011;22878;48.616;35.326;2022-08-21T07:46:55;87.00;;;9.15;;
36963;SDS011;22878;48.616;35.326;2022-08-21T07:49:21;67.95;;;7.72;;
36963;SDS011;22878;48.616;35.326;2022-08-21T07:51:47;85.53;;;8.65;;
36963;SDS011;22878;48.616;35.326;2022-08-21T07:54:13;72.50;;;9.00;;
36963;SDS011;22878;48.616;35.326;2022-08-21T07:56:39;68.65;;;9.23;;
36963;SDS011;22878;48.616;35.326;2022-08-21T07:59:04;64.77;;;8.00;;
36963;SDS011;22878;48.616;35.326;2022-08-21T08:01:30;69.00;;;8.58;;
36963;SDS011;22878;48.616;35.326;2022-08-21T08:03:56;79.03;;;9.38;;
36963;SDS011;22878;48.616;35.326;2022-08-21T08:06:22;58.28;;;8.43;;
36963;SDS011;22878;48.616;35.326;2022-08-21T08:08:49;73.10;;;9.78;;
36963;SDS011;22878;48.616;35.326;2022-08-21T08:11:14;82.90;;;9.48;;
36963;SDS011;22878;48.616;35.326;2022-08-21T08:13:41;84.13;;;9.85;;
36963;SDS011;22878;48.616;35.326;2022-08-21T08:16:08;77.85;;;9.55;;
36963;SDS011;22878;48.616;35.326;2022-08-21T08:18:34;74.72;;;9.08;;
36963;SDS011;22878;48.616;35.326;2022-08-21T08:21:00;77.45;;;9.65;;
36963;SDS011;22878;48.616;35.326;2022-08-21T08:23:25;86.47;;;10.00;;
36963;SDS011;22878;48.616;35.326;2022-08-21T08:25:52;99.80;;;9.98;;
36963;SDS011;22878;48.616;35.326;2022-08-21T08:28:18;90.22;;;9.10;;
36963;SDS011;22878;48.616;35.326;2022-08-21T08:30:44;99.85;;;9.45;;
36963;SDS011;22878;48.616;35.326;2022-08-21T08:33:10;82.97;;;9.93;;
36963;SDS011;22878;48.616;35.326;2022-08-21T08:35:36;80.00;;;9.08;;
36963;SDS011;22878;48.616;35.326;2022-08-21T08:38:02;81.67;;;9.38;;
36963;SDS011;22878;48.616;35.326;2022-08-21T08:43:06;87.95;;;9.25;;
36963;SDS011;22878;48.616;35.326;2022-08-21T08:45:34;59.53;;;7.25;;
36963;SDS011;22878;48.616;35.326;2022-08-21T08:48:03;69.27;;;8.33;;
36963;SDS011;22878;48.616;35.326;2022-08-21T08:50:37;56.42;;;7.53;;
36963;SDS011;22878;48.616;35.326;2022-08-21T08:55:57;55.90;;;7.40;;
36963;SDS011;22878;48.616;35.326;2022-08-21T08:58:31;63.58;;;7.83;;
36963;SDS011;22878;48.616;35.326;2022-08-21T09:03:24;66.92;;;7.33;;
36963;SDS011;22878;48.616;35.326;2022-08-21T09:27:48;59.77;;;6.62;;
36963;SDS011;22878;48.616;35.326;2022-08-21T09:30:16;65.92;;;6.42;;
36963;SDS011;22878;48.616;35.326;2022-08-21T09:32:43;51.95;;;5.50;;
36963;SDS011;22878;48.616;35.326;2022-08-21T09:35:12;43.33;;;5.35;;
36963;SDS011;22878;48.616;35.326;2022-08-21T09:37:49;47.98;;;5.35;;
36963;SDS011;22878;48.616;35.326;2022-08-21T09:40:20;43.33;;;5.90;;
36963;SDS011;22878;48.616;35.326;2022-08-21T09:42:57;49.38;;;5.35;;
36963;SDS011;22878;48.616;35.326;2022-08-21T09:45:28;49.98;;;5.60;;
36963;SDS011;22878;48.616;35.326;2022-08-21T09:48:07;49.58;;;5.20;;
36963;SDS011;22878;48.616;35.326;2022-08-21T09:50:41;46.77;;;5.87;;
36963;SDS011;22878;48.616;35.326;2022-08-21T09:53:15;57.48;;;6.45;;
36963;SDS011;22878;48.616;35.326;2022-08-21T09:55:47;59.67;;;5.42;;
36963;SDS011;22878;48.616;35.326;2022-08-21T09:58:40;43.63;;;4.97;;
36963;SDS011;22878;48.616;35.326;2022-08-21T10:03:41;41.37;;;4.70;;
36963;SDS011;22878;48.616;35.326;2022-08-21T10:09:29;41.95;;;4.53;;
36963;SDS011;22878;48.616;35.326;2022-08-21T10:12:10;56.40;;;5.62;;
36963;SDS011;22878;48.616;35.326;2022-08-21T10:17:23;38.00;;;4.45;;
36963;SDS011;22878;48.616;35.326;2022-08-21T10:31:00;47.48;;;4.83;;
36963;SDS011;22878;48.616;35.326;2022-08-21T10:41:52;40.98;;;4.00;;
36963;SDS011;22878;48.616;35.326;2022-08-21T11:01:12;34.25;;;4.78;;
36963;SDS011;22878;48.616;35.326;2022-08-21T11:03:50;33.65;;;3.90;;
36963;SDS011;22878;48.616;35.326;2022-08-21T11:06:21;52.03;;;3.72;;
36963;SDS011;22878;48.616;35.326;2022-08-21T11:08:50;44.40;;;3.98;;
36963;SDS011;22878;48.616;35.326;2022-08-21T11:11:27;41.35;;;4.40;;
36963;SDS011;22878;48.616;35.326;2022-08-21T11:13:56;38.70;;;4.30;;
36963;SDS011;22878;48.616;35.326;2022-08-21T11:16:36;40.52;;;3.80;;
36963;SDS011;22878;48.616;35.326;2022-08-21T11:19:18;38.50;;;4.30;;
36963;SDS011;22878;48.616;35.326;2022-08-21T11:21:53;36.73;;;4.12;;
36963;SDS011;22878;48.616;35.326;2022-08-21T11:24:24;35.17;;;3.60;;
36963;SDS011;22878;48.616;35.326;2022-08-21T11:29:40;29.05;;;3.87;;
36963;SDS011;22878;48.616;35.326;2022-08-21T11:45:41;37.05;;;4.03;;
36963;SDS011;22878;48.616;35.326;2022-08-21T11:48:31;28.55;;;4.03;;
36963;SDS011;22878;48.616;35.326;2022-08-21T11:51:03;23.18;;;3.62;;
36963;SDS011;22878;48.616;35.326;2022-08-21T11:56:21;38.63;;;5.22;;
36963;SDS011;22878;48.616;35.326;2022-08-21T11:58:51;47.43;;;4.70;;
36963;SDS011;22878;48.616;35.326;2022-08-21T12:01:25;41.35;;;4.85;;
36963;SDS011;22878;48.616;35.326;2022-08-21T12:06:31;41.20;;;4.43;;
36963;SDS011;22878;48.616;35.326;2022-08-21T12:09:28;35.92;;;4.28;;
36963;SDS011;22878;48.616;35.326;2022-08-21T12:12:02;27.30;;;2.95;;
36963;SDS011;22878;48.616;35.326;2022-08-21T12:14:37;27.77;;;3.33;;
36963;SDS011;22878;48.616;35.326;2022-08-21T12:17:08;32.95;;;3.67;;
36963;SDS011;22878;48.616;35.326;2022-08-21T12:19:36;35.85;;;3.75;;
36963;SDS011;22878;48.616;35.326;2022-08-21T12:24:44;41.08;;;4.00;;
36963;SDS011;22878;48.616;35.326;2022-08-21T12:29:52;39.42;;;4.30;;
36963;SDS011;22878;48.616;35.326;2022-08-21T12:35:02;27.37;;;4.17;;
36963;SDS011;22878;48.616;35.326;2022-08-21T12:42:41;32.78;;;3.50;;
36963;SDS011;22878;48.616;35.326;2022-08-21T12:45:23;23.20;;;2.52;;
36963;SDS011;22878;48.616;35.326;2022-08-21T12:48:11;30.10;;;3.30;;
36963;SDS011;22878;48.616;35.326;2022-08-21T12:50:40;42.65;;;3.33;;
36963;SDS011;22878;48.616;35.326;2022-08-21T12:53:16;34.95;;;3.05;;
36963;SDS011;22878;48.616;35.326;2022-08-21T12:55:48;20.95;;;2.85;;
36963;SDS011;22878;48.616;35.326;2022-08-21T12:58:19;29.67;;;3.70;;
36963;SDS011;22878;48.616;35.326;2022-08-21T13:00:50;23.87;;;2.90;;
36963;SDS011;22878;48.616;35.326;2022-08-21T13:03:18;28.30;;;3.30;;
36963;SDS011;22878;48.616;35.326;2022-08-21T13:05:44;24.98;;;2.60;;
36963;SDS011;22878;48.616;35.326;2022-08-21T13:08:10;29.30;;;3.05;;
36963;SDS011;22878;48.616;35.326;2022-08-21T13:10:37;26.95;;;3.00;;
36963;SDS011;22878;48.616;35.326;2022-08-21T13:13:09;24.75;;;5.00;;
36963;SDS011;22878;48.616;35.326;2022-08-21T13:15:37;26.90;;;2.72;;
36963;SDS011;22878;48.616;35.326;2022-08-21T13:18:05;22.98;;;4.05;;
36963;SDS011;22878;48.616;35.326;2022-08-21T13:25:29;41.33;;;3.77;;
36963;SDS011;22878;48.616;35.326;2022-08-21T13:28:07;34.85;;;2.90;;
36963;SDS011;22878;48.616;35.326;2022-08-21T13:30:42;22.85;;;3.40;;
36963;SDS011;22878;48.616;35.326;2022-08-21T13:33:11;24.90;;;3.05;;
36963;SDS011;22878;48.616;35.326;2022-08-21T13:38:33;29.98;;;2.95;;
36963;SDS011;22878;48.616;35.326;2022-08-21T13:43:44;22.98;;;3.40;;
36963;SDS011;22878;48.616;35.326;2022-08-21T13:46:14;31.30;;;2.60;;
36963;SDS011;22878;48.616;35.326;2022-08-21T13:48:42;25.00;;;2.62;;
36963;SDS011;22878;48.616;35.326;2022-08-21T13:51:10;25.15;;;2.70;;
36963;SDS011;22878;48.616;35.326;2022-08-21T13:56:21;24.05;;;3.52;;
36963;SDS011;22878;48.616;35.326;2022-08-21T13:58:51;32.25;;;3.15;;
36963;SDS011;22878;48.616;35.326;2022-08-21T14:04:04;22.42;;;3.45;;
36963;SDS011;22878;48.616;35.326;2022-08-21T14:06:37;13.05;;;2.92;;
36963;SDS011;22878;48.616;35.326;2022-08-21T14:11:35;28.32;;;3.62;;
36963;SDS011;22878;48.616;35.326;2022-08-21T14:14:02;28.23;;;2.85;;
36963;SDS011;22878;48.616;35.326;2022-08-21T14:16:46;19.02;;;2.77;;
36963;SDS011;22878;48.616;35.326;2022-08-21T14:19:19;20.08;;;2.67;;
36963;SDS011;22878;48.616;35.326;2022-08-21T14:21:52;34.00;;;3.02;;
36963;SDS011;22878;48.616;35.326;2022-08-21T14:26:53;23.40;;;3.12;;
36963;SDS011;22878;48.616;35.326;2022-08-21T14:29:21;19.32;;;3.20;;
36963;SDS011;22878;48.616;35.326;2022-08-21T14:34:19;22.87;;;3.55;;
36963;SDS011;22878;48.616;35.326;2022-08-21T14:36:47;23.62;;;3.98;;
36963;SDS011;22878;48.616;35.326;2022-08-21T14:39:13;22.20;;;3.10;;
36963;SDS011;22878;48.616;35.326;2022-08-21T14:41:39;15.60;;;3.35;;
36963;SDS011;22878;48.616;35.326;2022-08-21T14:44:05;29.35;;;3.50;;
36963;SDS011;22878;48.616;35.326;2022-08-21T14:46:31;12.98;;;2.60;;
36963;SDS011;22878;48.616;35.326;2022-08-21T14:49:00;18.15;;;3.15;;
36963;SDS011;22878;48.616;35.326;2022-08-21T14:51:26;30.32;;;2.70;;
36963;SDS011;22878;48.616;35.326;2022-08-21T14:53:53;20.27;;;2.83;;
36963;SDS011;22878;48.616;35.326;2022-08-21T14:56:19;19.02;;;2.67;;
36963;SDS011;22878;48.616;35.326;2022-08-21T14:58:45;27.05;;;3.42;;
36963;SDS011;22878;48.616;35.326;2022-08-21T15:01:16;19.45;;;2.58;;
36963;SDS011;22878;48.616;35.326;2022-08-21T15:03:43;16.23;;;2.55;;
36963;SDS011;22878;48.616;35.326;2022-08-21T15:06:11;19.10;;;2.85;;
36963;SDS011;22878;48.616;35.326;2022-08-21T15:08:37;12.85;;;2.20;;
36963;SDS011;22878;48.616;35.326;2022-08-21T15:11:03;28.95;;;2.87;;
36963;SDS011;22878;48.616;35.326;2022-08-21T15:13:30;27.02;;;3.55;;
36963;SDS011;22878;48.616;35.326;2022-08-21T15:15:55;21.80;;;2.83;;
36963;SDS011;22878;48.616;35.326;2022-08-21T15:18:24;17.37;;;2.50;;
36963;SDS011;22878;48.616;35.326;2022-08-21T15:25:54;18.02;;;2.62;;
36963;SDS011;22878;48.616;35.326;2022-08-21T15:28:23;13.75;;;2.50;;
36963;SDS011;22878;48.616;35.326;2022-08-21T15:30:49;16.30;;;2.72;;
36963;SDS011;22878;48.616;35.326;2022-08-21T15:33:15;17.20;;;2.92;;
36963;SDS011;22878;48.616;35.326;2022-08-21T15:35:42;17.32;;;2.15;;
36963;SDS011;22878;48.616;35.326;2022-08-21T15:38:08;16.82;;;3.12;;
36963;SDS011;22878;48.616;35.326;2022-08-21T15:40:34;14.05;;;2.25;;
36963;SDS011;22878;48.616;35.326;2022-08-21T15:43:01;20.40;;;2.77;;
36963;SDS011;22878;48.616;35.326;2022-08-21T15:45:28;22.87;;;3.10;;
36963;SDS011;22878;48.616;35.326;2022-08-21T15:48:01;18.82;;;3.33;;
36963;SDS011;22878;48.616;35.326;2022-08-21T15:50:57;19.80;;;2.75;;
36963;SDS011;22878;48.616;35.326;2022-08-21T15:53:23;13.18;;;2.65;;
36963;SDS011;22878;48.616;35.326;2022-08-21T15:55:49;17.75;;;2.87;;
36963;SDS011;22878;48.616;35.326;2022-08-21T15:58:15;14.98;;;2.65;;
36963;SDS011;22878;48.616;35.326;2022-08-21T16:00:43;12.63;;;2.70;;
36963;SDS011;22878;48.616;35.326;2022-08-21T16:03:10;19.12;;;2.80;;
36963;SDS011;22878;48.616;35.326;2022-08-21T16:05:38;10.53;;;2.87;;
36963;SDS011;22878;48.616;35.326;2022-08-21T16:08:04;9.65;;;2.25;;
36963;SDS011;22878;48.616;35.326;2022-08-21T16:10:30;14.30;;;2.20;;
36963;SDS011;22878;48.616;35.326;2022-08-21T16:13:01;16.10;;;2.40;;
36963;SDS011;22878;48.616;35.326;2022-08-21T16:15:28;15.90;;;2.25;;
36963;SDS011;22878;48.616;35.326;2022-08-21T16:17:54;16.05;;;2.40;;
36963;SDS011;22878;48.616;35.326;2022-08-21T16:20:23;17.17;;;2.67;;
36963;SDS011;22878;48.616;35.326;2022-08-21T16:22:50;12.25;;;2.45;;
36963;SDS011;22878;48.616;35.326;2022-08-21T16:25:17;17.87;;;2.95;;
36963;SDS011;22878;48.616;35.326;2022-08-21T16:27:43;22.48;;;3.85;;
36963;SDS011;22878;48.616;35.326;2022-08-21T16:30:11;19.23;;;3.30;;
36963;SDS011;22878;48.616;35.326;2022-08-21T16:32:39;16.32;;;2.80;;
36963;SDS011;22878;48.616;35.326;2022-08-21T16:35:05;20.80;;;2.67;;
36963;SDS011;22878;48.616;35.326;2022-08-21T16:37:31;15.95;;;1.98;;
36963;SDS011;22878;48.616;35.326;2022-08-21T16:40:02;17.27;;;2.20;;
36963;SDS011;22878;48.616;35.326;2022-08-21T16:42:29;13.20;;;2.98;;
36963;SDS011;22878;48.616;35.326;2022-08-21T16:44:55;22.62;;;2.62;;
36963;SDS011;22878;48.616;35.326;2022-08-21T16:47:21;12.28;;;2.65;;
36963;SDS011;22878;48.616;35.326;2022-08-21T16:49:47;18.05;;;2.50;;
36963;SDS011;22878;48.616;35.326;2022-08-21T16:52:15;16.60;;;1.90;;